createdAt,value
2023-03-03T00:01:24.053Z,1644
2023-03-03T00:06:42.261Z,1648
2023-03-03T00:12:00.495Z,1653
2023-03-03T00:17:18.482Z,1661
2023-03-03T00:22:37.228Z,1653
2023-03-03T00:27:55.759Z,1644
2023-03-03T00:33:14.279Z,1644
2023-03-03T00:38:32.182Z,1654
2023-03-03T00:43:50.445Z,1673
2023-03-03T00:49:08.401Z,1680
2023-03-03T00:54:26.595Z,1672
2023-03-03T00:59:44.898Z,1680
2023-03-03T01:05:03.354Z,1681
2023-03-03T01:10:21.922Z,1674
2023-03-03T01:15:40.804Z,1675
2023-03-03T01:20:59.187Z,1673
2023-03-03T01:26:17.659Z,1675
2023-03-03T01:31:36.548Z,1674
2023-03-03T01:36:55.145Z,1677
2023-03-03T01:42:13.996Z,1681
2023-03-03T01:47:32.760Z,1673
2023-03-03T01:52:50.974Z,1660
2023-03-03T01:58:09.740Z,1648
2023-03-03T02:03:28.251Z,1642
2023-03-03T02:08:46.817Z,1645
2023-03-03T02:14:05.616Z,1646
2023-03-03T02:19:24.115Z,1643
2023-03-03T02:24:42.077Z,1644
2023-03-03T02:30:00.534Z,1650
2023-03-03T02:35:19.366Z,1660
2023-03-03T02:40:37.768Z,1665
2023-03-03T02:45:40.703Z,1671
2023-03-03T02:50:59.334Z,1676
2023-03-03T02:56:17.799Z,1673
2023-03-03T03:01:36.273Z,1683
2023-03-03T03:06:54.930Z,1684
2023-03-03T03:12:13.128Z,1686
2023-03-03T03:17:31.675Z,1695
2023-03-03T03:22:49.934Z,1694
2023-03-03T03:28:07.873Z,1689
2023-03-03T03:33:26.610Z,1683
2023-03-03T03:38:29.282Z,1685
2023-03-03T03:43:47.584Z,1704
2023-03-03T03:49:05.824Z,1720
2023-03-03T03:54:24.332Z,1723
2023-03-03T03:59:42.833Z,1728
2023-03-03T04:05:01.604Z,1726
2023-03-03T04:10:20.104Z,1720
2023-03-03T04:15:38.639Z,1713
2023-03-03T04:20:57.156Z,1717
2023-03-03T04:26:15.702Z,1712
2023-03-03T04:31:34.171Z,1713
2023-03-03T04:36:52.671Z,1714
2023-03-03T04:42:11.187Z,1727
2023-03-03T04:47:29.439Z,1742
2023-03-03T04:52:47.364Z,1747
2023-03-03T04:58:05.594Z,1740
2023-03-03T05:03:23.500Z,1734
2023-03-03T05:08:42.006Z,1735
2023-03-03T05:14:00.518Z,1765
2023-03-03T05:19:19.021Z,1772
2023-03-03T05:24:37.798Z,1756
2023-03-03T05:29:56.590Z,1747
2023-03-03T05:35:15.054Z,1757
2023-03-03T05:40:32.973Z,1766
2023-03-03T05:45:53.934Z,1779
2023-03-03T05:51:12.418Z,1779
2023-03-03T05:56:31.173Z,1757
2023-03-03T06:01:50.150Z,1750
2023-03-03T06:07:09.122Z,1748
2023-03-03T06:12:27.898Z,1749
2023-03-03T06:17:46.451Z,1755
2023-03-03T06:23:10.060Z,1757
2023-03-03T06:28:28.845Z,1759
2023-03-03T06:33:47.345Z,1728
2023-03-03T06:39:05.845Z,1726
2023-03-03T06:44:24.615Z,1738
2023-03-03T06:49:46.666Z,1741
2023-03-03T06:55:04.845Z,1726
2023-03-03T07:00:23.396Z,1741
2023-03-03T07:05:42.035Z,1758
2023-03-03T07:11:00.280Z,1766
2023-03-03T07:16:18.885Z,1778
2023-03-03T07:21:37.448Z,1792
2023-03-03T07:26:55.683Z,1800
2023-03-03T07:32:14.258Z,1819
2023-03-03T07:37:32.600Z,1811
2023-03-03T07:42:51.028Z,1793
2023-03-03T07:48:12.714Z,1779
2023-03-03T07:53:31.628Z,1742
2023-03-03T07:58:34.609Z,1702
2023-03-03T08:03:53.608Z,1668
2023-03-03T08:09:11.960Z,1636
2023-03-03T08:14:30.234Z,1605
2023-03-03T08:19:48.162Z,1602
2023-03-03T08:25:08.043Z,1636
2023-03-03T08:30:26.589Z,1633
2023-03-03T08:35:45.229Z,1630
2023-03-03T08:41:04.270Z,1397
2023-03-03T08:46:22.327Z,1387
2023-03-03T08:51:41.451Z,1400
2023-03-03T08:56:59.662Z,1411
2023-03-03T09:02:18.273Z,1402
2023-03-03T09:07:37.151Z,1409
2023-03-03T09:12:55.674Z,1404
2023-03-03T09:18:17.237Z,1401
2023-03-03T09:23:39.324Z,1400
2023-03-03T09:28:58.626Z,1395
2023-03-03T09:34:17.415Z,1386
2023-03-03T09:39:36.415Z,1377
2023-03-03T09:44:55.619Z,1335
2023-03-03T09:50:14.183Z,1344
2023-03-03T09:55:32.665Z,1355
2023-03-03T10:00:54.634Z,1364
2023-03-03T10:06:15.937Z,1371
2023-03-03T10:11:34.731Z,1362
2023-03-03T10:16:56.301Z,1316
2023-03-03T10:22:14.590Z,1307
2023-03-03T10:27:35.839Z,1301
2023-03-03T10:32:54.316Z,1302
2023-03-03T10:38:13.356Z,1297
2023-03-03T10:43:32.761Z,1304
2023-03-03T10:48:54.186Z,1334
2023-03-03T10:54:12.664Z,1349
2023-03-03T10:59:30.860Z,1364
2023-03-03T11:04:48.869Z,1382
2023-03-03T11:10:07.370Z,1386
2023-03-03T11:15:25.553Z,1382
2023-03-03T11:20:44.043Z,1381
2023-03-03T11:26:02.287Z,1384
2023-03-03T11:31:21.139Z,1377
2023-03-03T11:36:39.788Z,1271
2023-03-03T11:41:57.815Z,1139
2023-03-03T11:47:16.222Z,1124
2023-03-03T11:52:35.797Z,1148
2023-03-03T11:57:57.527Z,1180
2023-03-03T12:03:16.998Z,1197
2023-03-03T12:08:38.720Z,1215
2023-03-03T12:13:57.399Z,1223
2023-03-03T12:19:15.591Z,1134
2023-03-03T12:24:37.338Z,1190
2023-03-03T12:29:57.057Z,1253
2023-03-03T12:35:15.542Z,1297
2023-03-03T12:40:18.758Z,1328
2023-03-03T12:45:37.304Z,1348
2023-03-03T12:50:56.167Z,1372
2023-03-03T12:56:15.435Z,1387
2023-03-03T13:01:33.641Z,1386
2023-03-03T13:06:52.120Z,1391
2023-03-03T13:12:11.183Z,1392
2023-03-03T13:17:29.460Z,1394
2023-03-03T13:22:48.263Z,1420
2023-03-03T13:28:06.456Z,1450
2023-03-03T13:33:09.458Z,1474
2023-03-03T13:38:27.934Z,1500
2023-03-03T13:43:46.167Z,1508
2023-03-03T13:49:05.220Z,1528
2023-03-03T13:54:23.520Z,1564
2023-03-03T13:59:41.716Z,1612
2023-03-03T14:05:00.520Z,1645
2023-03-03T14:10:19.076Z,1637
2023-03-03T14:15:37.588Z,1617
2023-03-03T14:20:56.089Z,1673
2023-03-03T14:26:14.553Z,1731
2023-03-03T14:31:33.432Z,1719
2023-03-03T14:36:52.015Z,1681
2023-03-03T14:42:10.206Z,1660
2023-03-03T14:47:28.769Z,1670
2023-03-03T14:52:47.267Z,1658
2023-03-03T14:58:06.459Z,1638
2023-03-03T15:03:24.620Z,1606
2023-03-03T15:08:43.194Z,1571
2023-03-03T15:14:01.106Z,1541
2023-03-03T15:19:19.903Z,1522
2023-03-03T15:24:38.138Z,1500
2023-03-03T15:29:56.519Z,1488
2023-03-03T15:35:15.095Z,1481
2023-03-03T15:40:33.418Z,1478
2023-03-03T15:45:51.700Z,1477
2023-03-03T15:51:10.228Z,1476
2023-03-03T15:56:28.716Z,1465
2023-03-03T16:01:31.638Z,1457
2023-03-03T16:06:49.718Z,1473
2023-03-03T16:12:07.946Z,1375
2023-03-03T16:17:26.452Z,1312
2023-03-03T16:22:48.168Z,1380
2023-03-03T16:28:06.662Z,1410
2023-03-03T16:33:24.895Z,1420
2023-03-03T16:38:43.375Z,1420
2023-03-03T16:44:04.000Z,1405
2023-03-03T16:49:21.929Z,1388
2023-03-03T16:54:40.255Z,1371
2023-03-03T16:59:58.166Z,1386
2023-03-03T17:05:16.986Z,1396
2023-03-03T17:10:36.373Z,1420
2023-03-03T17:15:55.142Z,1421
2023-03-03T17:21:03.120Z,1427
2023-03-03T17:26:21.940Z,1426
2023-03-03T17:31:40.528Z,1431
2023-03-03T17:36:59.852Z,1431
2023-03-03T17:42:19.399Z,1430
2023-03-03T17:47:38.403Z,1429
2023-03-03T17:52:59.450Z,1434
2023-03-03T17:58:17.863Z,1426
2023-03-03T18:03:36.356Z,1430
2023-03-03T18:09:04.881Z,1434
2023-03-03T18:14:33.040Z,1411
2023-03-03T18:19:51.249Z,1367
2023-03-03T18:25:12.521Z,1364
2023-03-03T18:30:31.271Z,1350
2023-03-03T18:35:50.186Z,1341
2023-03-03T18:41:08.487Z,1343
2023-03-03T18:46:26.731Z,1339
2023-03-03T18:51:45.420Z,1331
2023-03-03T18:57:03.346Z,1314
2023-03-03T19:02:23.780Z,1291
2023-03-03T19:07:46.193Z,1259
2023-03-03T19:13:07.444Z,1228
2023-03-03T19:18:25.905Z,1214
2023-03-03T19:23:44.664Z,1184
2023-03-03T19:29:03.146Z,1151
2023-03-03T19:34:21.351Z,1114
2023-03-03T19:39:39.824Z,1099
2023-03-03T19:44:58.175Z,1099
2023-03-03T19:50:17.124Z,1104
2023-03-03T19:55:35.936Z,1110
2023-03-03T20:00:59.597Z,1124
2023-03-03T20:06:18.117Z,1137
2023-03-03T20:11:36.616Z,1147
2023-03-03T20:16:57.866Z,1154
2023-03-03T20:22:16.475Z,1168
2023-03-03T20:27:36.020Z,1177
2023-03-03T20:32:53.914Z,1192
2023-03-03T20:38:12.689Z,1204
2023-03-03T20:43:30.620Z,1224
2023-03-03T20:48:49.339Z,1238
2023-03-03T20:54:08.504Z,1248
2023-03-03T20:59:29.790Z,1267
2023-03-03T21:04:48.269Z,1275
2023-03-03T21:10:06.838Z,1298
2023-03-03T21:15:25.622Z,1311
2023-03-03T21:20:44.141Z,1329
2023-03-03T21:26:02.365Z,1340
2023-03-03T21:31:05.243Z,1357
2023-03-03T21:36:23.622Z,1369
2023-03-03T21:41:42.107Z,1382
2023-03-03T21:47:00.464Z,1388
2023-03-03T21:52:18.948Z,1388
2023-03-03T21:57:37.457Z,1398
2023-03-03T22:02:55.406Z,1415
2023-03-03T22:08:13.865Z,1432
2023-03-03T22:13:32.795Z,1457
2023-03-03T22:18:51.827Z,1460
2023-03-03T22:24:10.177Z,1464
2023-03-03T22:29:28.132Z,1463
2023-03-03T22:34:46.676Z,1460
2023-03-03T22:40:05.611Z,1496
2023-03-03T22:45:23.853Z,1516
2023-03-03T22:50:42.097Z,1526
2023-03-03T22:56:00.280Z,1536
2023-03-03T23:01:21.457Z,1532
2023-03-03T23:06:39.967Z,1530
2023-03-03T23:11:58.475Z,1525
2023-03-03T23:17:16.716Z,1525
2023-03-03T23:22:35.522Z,1525
2023-03-03T23:27:54.218Z,1522
2023-03-03T23:33:12.442Z,1520
2023-03-03T23:38:30.546Z,1514
2023-03-03T23:43:49.025Z,1513
2023-03-03T23:49:07.727Z,1510
2023-03-03T23:54:25.933Z,1511
2023-03-03T23:59:44.410Z,1512
